Maersk Barry — OYJE2 — position and weather

sailwx.info

Track history (hours):
 
Tides and Currents Weather Stations Pressure Air Temp Water Temp Dewpoint Dewpoint Depression Visibility Wind Speed Wind Dir Waves Ship Positions

Maersk Barry

Last reported at 2018-Apr-25 21:56 UTC. Time now 2018-Apr-25 22:12 UTC.
Position N 37°39' E 010°31'.

Length 175 m; draft 9.5 m.

Type: Ship (hazmat cat B). MMSI: 219127000.

Date/timePositionNaut miles runAvg speedWind from/ knotsBaromVisibWave heightAir tempDewpointWater temp
2018-Apr-25 21:56N 37°39' E 010°31'612.7
2018-Apr-25 21:28N 37°37' E 010°39'2312.4
2018-Apr-25 19:37N 37°29' E 011°06'112.6
2018-Apr-25 19:30N 37°29' E 011°08'612.7
2018-Apr-25 19:00N 37°26' E 011°15'3513.1
2018-Apr-25 16:21N 37°09' E 011°53'812.9
2018-Apr-25 15:43N 37°05' E 012°01'1513.0
2018-Apr-25 14:36N 36°59' E 012°18'112.7
2018-Apr-25 14:29N 36°58' E 012°19'612.6
2018-Apr-25 13:59N 36°55' E 012°27'612.7
2018-Apr-25 13:30N 36°53' E 012°34'613.0
2018-Apr-25 13:00N 36°50' E 012°41'713.2
2018-Apr-25 12:30N 36°47' E 012°49'713.4
2018-Apr-25 12:00N 36°44' E 012°56'713.2
2018-Apr-25 11:30N 36°41' E 013°04'713.1
2018-Apr-25 11:00N 36°39' E 013°11'612.7
2018-Apr-25 10:30N 36°36' E 013°18'612.6
2018-Apr-25 10:00N 36°33' E 013°25'612.8
2018-Apr-25 09:30N 36°31' E 013°33'713.1
2018-Apr-25 09:00N 36°28' E 013°40'713.3
2018-Apr-25 08:30N 36°25' E 013°47'713.3
2018-Apr-25 08:00N 36°22' E 013°55'713.5
2018-Apr-25 07:30N 36°19' E 014°02'713.6
2018-Apr-25 06:59N 36°16' E 014°10'713.6
2018-Apr-25 06:30N 36°13' E 014°17'713.5
2018-Apr-25 06:00N 36°10' E 014°25'713.4
2018-Apr-25 05:30N 36°07' E 014°32'713.5
2018-Apr-25 05:00N 36°02' E 014°38'713.3
2018-Apr-25 04:30N 35°58' E 014°44'5 9.1
2018-Apr-25 04:00N 35°54' E 014°48'0 0.3
2018-Apr-25 03:29N 35°54' E 014°48'0 0.0
2018-Apr-25 02:59N 35°54' E 014°48'0 0.0
2018-Apr-25 02:29N 35°54' E 014°48'0 0.1
2018-Apr-25 01:59N 35°54' E 014°48'0 0.0
2018-Apr-25 01:29N 35°54' E 014°48'0 0.0
2018-Apr-25 00:59N 35°54' E 014°48'0 0.0
2018-Apr-25 00:29N 35°54' E 014°48'0 0.0
2018-Apr-24 23:59N 35°54' E 014°48'0 0.0
2018-Apr-24 23:29N 35°54' E 014°48'0 0.0
2018-Apr-24 22:59N 35°54' E 014°48'0 0.0
2018-Apr-24 22:29N 35°54' E 014°48'0 0.0
2018-Apr-24 21:59N 35°54' E 014°48'0 0.1
2018-Apr-24 21:29N 35°54' E 014°48'0 0.0
2018-Apr-24 20:59N 35°54' E 014°48'0 0.0
2018-Apr-24 20:29N 35°54' E 014°48'0 0.0
2018-Apr-24 19:59N 35°54' E 014°48'0 0.0
2018-Apr-24 19:29N 35°54' E 014°48'0 0.0
2018-Apr-24 18:59N 35°54' E 014°48'0 0.0
2018-Apr-24 18:23N 35°54' E 014°48'0 0.1
2018-Apr-24 17:59N 35°54' E 014°48'0 0.1
2018-Apr-24 17:29N 35°54' E 014°48'1 1.6
2018-Apr-24 17:01N 35°54' E 014°49'611.2
2018-Apr-24 16:30N 35°52' E 014°56'713.4
2018-Apr-24 16:01N 35°50' E 015°03'713.3
2018-Apr-24 15:30N 35°48' E 015°11'713.3
2018-Apr-24 15:00N 35°48' E 015°19'613.0
2018-Apr-24 14:30N 35°46' E 015°27'612.7
2018-Apr-24 14:01N 35°44' E 015°34'1412.9
2018-Apr-24 12:56N 35°40' E 015°51'613.1
2018-Apr-24 12:29N 35°39' E 015°58'612.5
2018-Apr-24 12:01N 35°37' E 016°05'612.1
2018-Apr-24 11:30N 35°36' E 016°12'612.4
2018-Apr-24 10:59N 35°34' E 016°20'612.6
2018-Apr-24 10:30N 35°32' E 016°27'613.0
2018-Apr-24 10:00N 35°30' E 016°35'713.1
2018-Apr-24 09:29N 35°28' E 016°43'613.2
2018-Apr-24 09:00N 35°27' E 016°50'713.4
2018-Apr-24 08:30N 35°25' E 016°58'713.4
2018-Apr-24 08:00N 35°23' E 017°06'713.2
2018-Apr-24 07:30N 35°21' E 017°14'613.1
2018-Apr-24 07:01N 35°19' E 017°22'713.2
2018-Apr-24 06:30N 35°18' E 017°30'  
Track history (hours):
 
Tides and Currents Weather Stations Pressure Air Temp Water Temp Dewpoint Dewpoint Depression Visibility Wind Speed Wind Dir Waves Ship Positions

Maersk Barry

Last reported at 2018-Apr-25 21:56 UTC. Time now 2018-Apr-25 22:12 UTC.
Position N 37°39' E 010°31'.

Length 175 m; draft 9.5 m.

Type: Ship (hazmat cat B). MMSI: 219127000.

Date/timePositionNaut miles runAvg speedWind from/ knotsBaromVisibWave heightAir tempDewpointWater temp
2018-Apr-25 21:56N 37°39' E 010°31'612.7
2018-Apr-25 21:28N 37°37' E 010°39'2312.4
2018-Apr-25 19:37N 37°29' E 011°06'112.6
2018-Apr-25 19:30N 37°29' E 011°08'612.7
2018-Apr-25 19:00N 37°26' E 011°15'3513.1
2018-Apr-25 16:21N 37°09' E 011°53'812.9
2018-Apr-25 15:43N 37°05' E 012°01'1513.0
2018-Apr-25 14:36N 36°59' E 012°18'112.7
2018-Apr-25 14:29N 36°58' E 012°19'612.6
2018-Apr-25 13:59N 36°55' E 012°27'612.7
2018-Apr-25 13:30N 36°53' E 012°34'613.0
2018-Apr-25 13:00N 36°50' E 012°41'713.2
2018-Apr-25 12:30N 36°47' E 012°49'713.4
2018-Apr-25 12:00N 36°44' E 012°56'713.2
2018-Apr-25 11:30N 36°41' E 013°04'713.1
2018-Apr-25 11:00N 36°39' E 013°11'612.7
2018-Apr-25 10:30N 36°36' E 013°18'612.6
2018-Apr-25 10:00N 36°33' E 013°25'612.8
2018-Apr-25 09:30N 36°31' E 013°33'713.1
2018-Apr-25 09:00N 36°28' E 013°40'713.3
2018-Apr-25 08:30N 36°25' E 013°47'713.3
2018-Apr-25 08:00N 36°22' E 013°55'713.5
2018-Apr-25 07:30N 36°19' E 014°02'713.6
2018-Apr-25 06:59N 36°16' E 014°10'713.6
2018-Apr-25 06:30N 36°13' E 014°17'713.5
2018-Apr-25 06:00N 36°10' E 014°25'713.4
2018-Apr-25 05:30N 36°07' E 014°32'713.5
2018-Apr-25 05:00N 36°02' E 014°38'713.3
2018-Apr-25 04:30N 35°58' E 014°44'5 9.1
2018-Apr-25 04:00N 35°54' E 014°48'0 0.3
2018-Apr-25 03:29N 35°54' E 014°48'0 0.0
2018-Apr-25 02:59N 35°54' E 014°48'0 0.0
2018-Apr-25 02:29N 35°54' E 014°48'0 0.1
2018-Apr-25 01:59N 35°54' E 014°48'0 0.0
2018-Apr-25 01:29N 35°54' E 014°48'0 0.0
2018-Apr-25 00:59N 35°54' E 014°48'0 0.0
2018-Apr-25 00:29N 35°54' E 014°48'0 0.0
2018-Apr-24 23:59N 35°54' E 014°48'0 0.0
2018-Apr-24 23:29N 35°54' E 014°48'0 0.0
2018-Apr-24 22:59N 35°54' E 014°48'0 0.0
2018-Apr-24 22:29N 35°54' E 014°48'0 0.0
2018-Apr-24 21:59N 35°54' E 014°48'0 0.1
2018-Apr-24 21:29N 35°54' E 014°48'0 0.0
2018-Apr-24 20:59N 35°54' E 014°48'0 0.0
2018-Apr-24 20:29N 35°54' E 014°48'0 0.0
2018-Apr-24 19:59N 35°54' E 014°48'0 0.0
2018-Apr-24 19:29N 35°54' E 014°48'0 0.0
2018-Apr-24 18:59N 35°54' E 014°48'0 0.0
2018-Apr-24 18:23N 35°54' E 014°48'0 0.1
2018-Apr-24 17:59N 35°54' E 014°48'0 0.1
2018-Apr-24 17:29N 35°54' E 014°48'1 1.6
2018-Apr-24 17:01N 35°54' E 014°49'611.2
2018-Apr-24 16:30N 35°52' E 014°56'713.4
2018-Apr-24 16:01N 35°50' E 015°03'713.3
2018-Apr-24 15:30N 35°48' E 015°11'713.3
2018-Apr-24 15:00N 35°48' E 015°19'613.0
2018-Apr-24 14:30N 35°46' E 015°27'612.7
2018-Apr-24 14:01N 35°44' E 015°34'1412.9
2018-Apr-24 12:56N 35°40' E 015°51'613.1
2018-Apr-24 12:29N 35°39' E 015°58'612.5
2018-Apr-24 12:01N 35°37' E 016°05'612.1
2018-Apr-24 11:30N 35°36' E 016°12'612.4
2018-Apr-24 10:59N 35°34' E 016°20'612.6
2018-Apr-24 10:30N 35°32' E 016°27'613.0
2018-Apr-24 10:00N 35°30' E 016°35'713.1
2018-Apr-24 09:29N 35°28' E 016°43'613.2
2018-Apr-24 09:00N 35°27' E 016°50'713.4
2018-Apr-24 08:30N 35°25' E 016°58'713.4
2018-Apr-24 08:00N 35°23' E 017°06'713.2
2018-Apr-24 07:30N 35°21' E 017°14'613.1
2018-Apr-24 07:01N 35°19' E 017°22'713.2
2018-Apr-24 06:30N 35°18' E 017°30'  

Dump ship's entire track history